sensor_id;sensor_type;location;lat;lon;timestamp;P1;durP1;ratioP1;P2;durP2;ratioP2
20445;SDS011;10382;49.140;9.234;2024-02-26T00:02:10;11.40;;;4.67;;
20445;SDS011;10382;49.140;9.234;2024-02-26T00:04:39;6.77;;;5.63;;
20445;SDS011;10382;49.140;9.234;2024-02-26T00:07:05;8.97;;;5.10;;
20445;SDS011;10382;49.140;9.234;2024-02-26T00:09:32;5.73;;;4.43;;
20445;SDS011;10382;49.140;9.234;2024-02-26T00:12:01;5.90;;;4.43;;
20445;SDS011;10382;49.140;9.234;2024-02-26T00:14:28;16.00;;;5.13;;
20445;SDS011;10382;49.140;9.234;2024-02-26T00:16:55;5.00;;;4.47;;
20445;SDS011;10382;49.140;9.234;2024-02-26T00:19:22;8.17;;;5.37;;
20445;SDS011;10382;49.140;9.234;2024-02-26T00:21:50;6.60;;;5.30;;
20445;SDS011;10382;49.140;9.234;2024-02-26T00:24:18;6.90;;;5.30;;
20445;SDS011;10382;49.140;9.234;2024-02-26T00:26:45;7.50;;;5.40;;
20445;SDS011;10382;49.140;9.234;2024-02-26T00:29:17;4.83;;;4.37;;
20445;SDS011;10382;49.140;9.234;2024-02-26T00:31:44;5.43;;;4.23;;
20445;SDS011;10382;49.140;9.234;2024-02-26T00:34:11;7.40;;;4.90;;
20445;SDS011;10382;49.140;9.234;2024-02-26T00:36:38;7.83;;;4.90;;
20445;SDS011;10382;49.140;9.234;2024-02-26T00:39:06;5.03;;;4.50;;
20445;SDS011;10382;49.140;9.234;2024-02-26T00:41:37;6.03;;;4.83;;
20445;SDS011;10382;49.140;9.234;2024-02-26T00:44:04;5.83;;;4.60;;
20445;SDS011;10382;49.140;9.234;2024-02-26T00:46:31;5.53;;;4.70;;
20445;SDS011;10382;49.140;9.234;2024-02-26T00:48:58;5.90;;;4.30;;
20445;SDS011;10382;49.140;9.234;2024-02-26T00:51:25;4.03;;;3.63;;
20445;SDS011;10382;49.140;9.234;2024-02-26T00:53:52;5.73;;;3.83;;
20445;SDS011;10382;49.140;9.234;2024-02-26T00:56:21;7.30;;;4.10;;
20445;SDS011;10382;49.140;9.234;2024-02-26T00:58:48;6.13;;;3.60;;
20445;SDS011;10382;49.140;9.234;2024-02-26T01:01:14;6.57;;;4.00;;
20445;SDS011;10382;49.140;9.234;2024-02-26T01:03:41;5.67;;;3.87;;
20445;SDS011;10382;49.140;9.234;2024-02-26T01:06:08;4.57;;;4.17;;
20445;SDS011;10382;49.140;9.234;2024-02-26T01:08:36;5.60;;;4.03;;
20445;SDS011;10382;49.140;9.234;2024-02-26T01:11:03;5.10;;;4.27;;
20445;SDS011;10382;49.140;9.234;2024-02-26T01:13:31;4.80;;;4.40;;
20445;SDS011;10382;49.140;9.234;2024-02-26T01:15:58;5.17;;;4.67;;
20445;SDS011;10382;49.140;9.234;2024-02-26T01:18:25;5.23;;;3.90;;
20445;SDS011;10382;49.140;9.234;2024-02-26T01:20:52;10.43;;;5.00;;
20445;SDS011;10382;49.140;9.234;2024-02-26T01:23:19;5.80;;;4.17;;
20445;SDS011;10382;49.140;9.234;2024-02-26T01:25:46;4.90;;;3.83;;
20445;SDS011;10382;49.140;9.234;2024-02-26T01:28:13;4.53;;;4.13;;
20445;SDS011;10382;49.140;9.234;2024-02-26T01:30:42;7.97;;;4.93;;
20445;SDS011;10382;49.140;9.234;2024-02-26T01:33:09;5.40;;;4.60;;
20445;SDS011;10382;49.140;9.234;2024-02-26T01:35:36;4.67;;;4.10;;
20445;SDS011;10382;49.140;9.234;2024-02-26T01:38:03;5.90;;;4.53;;
20445;SDS011;10382;49.140;9.234;2024-02-26T01:40:31;6.43;;;4.50;;
20445;SDS011;10382;49.140;9.234;2024-02-26T01:42:58;7.47;;;5.03;;
20445;SDS011;10382;49.140;9.234;2024-02-26T01:45:26;5.17;;;3.50;;
20445;SDS011;10382;49.140;9.234;2024-02-26T01:47:54;4.53;;;3.97;;
20445;SDS011;10382;49.140;9.234;2024-02-26T01:50:22;6.47;;;4.20;;
20445;SDS011;10382;49.140;9.234;2024-02-26T01:52:51;6.73;;;5.50;;
20445;SDS011;10382;49.140;9.234;2024-02-26T01:55:18;6.03;;;4.87;;
20445;SDS011;10382;49.140;9.234;2024-02-26T01:57:48;5.17;;;3.87;;
20445;SDS011;10382;49.140;9.234;2024-02-26T02:00:16;5.17;;;4.67;;
20445;SDS011;10382;49.140;9.234;2024-02-26T02:02:44;8.60;;;4.67;;
20445;SDS011;10382;49.140;9.234;2024-02-26T02:05:15;6.43;;;4.73;;
20445;SDS011;10382;49.140;9.234;2024-02-26T02:07:43;4.57;;;4.17;;
20445;SDS011;10382;49.140;9.234;2024-02-26T02:10:10;5.57;;;4.03;;
20445;SDS011;10382;49.140;9.234;2024-02-26T02:12:37;6.87;;;4.50;;
20445;SDS011;10382;49.140;9.234;2024-02-26T02:15:05;7.00;;;3.37;;
20445;SDS011;10382;49.140;9.234;2024-02-26T02:17:33;7.57;;;3.80;;
20445;SDS011;10382;49.140;9.234;2024-02-26T02:20:00;5.27;;;3.60;;
20445;SDS011;10382;49.140;9.234;2024-02-26T02:22:28;6.23;;;3.60;;
20445;SDS011;10382;49.140;9.234;2024-02-26T02:24:57;5.47;;;3.53;;
20445;SDS011;10382;49.140;9.234;2024-02-26T02:27:24;8.27;;;4.87;;
20445;SDS011;10382;49.140;9.234;2024-02-26T02:29:51;4.60;;;3.10;;
20445;SDS011;10382;49.140;9.234;2024-02-26T02:32:19;4.53;;;4.23;;
20445;SDS011;10382;49.140;9.234;2024-02-26T02:34:46;4.20;;;3.80;;
20445;SDS011;10382;49.140;9.234;2024-02-26T02:37:13;5.03;;;4.63;;
20445;SDS011;10382;49.140;9.234;2024-02-26T02:39:41;6.33;;;4.50;;
20445;SDS011;10382;49.140;9.234;2024-02-26T02:42:08;4.40;;;3.93;;
20445;SDS011;10382;49.140;9.234;2024-02-26T02:44:35;6.87;;;4.17;;
20445;SDS011;10382;49.140;9.234;2024-02-26T02:47:02;8.30;;;4.30;;
20445;SDS011;10382;49.140;9.234;2024-02-26T02:49:29;5.17;;;4.50;;
20445;SDS011;10382;49.140;9.234;2024-02-26T02:51:56;5.50;;;3.90;;
20445;SDS011;10382;49.140;9.234;2024-02-26T02:54:23;10.53;;;4.90;;
20445;SDS011;10382;49.140;9.234;2024-02-26T02:56:51;4.80;;;3.80;;
20445;SDS011;10382;49.140;9.234;2024-02-26T02:59:18;8.10;;;3.90;;
20445;SDS011;10382;49.140;9.234;2024-02-26T03:01:45;5.07;;;4.30;;
20445;SDS011;10382;49.140;9.234;2024-02-26T03:04:12;4.40;;;4.00;;
20445;SDS011;10382;49.140;9.234;2024-02-26T03:06:39;5.53;;;4.57;;
20445;SDS011;10382;49.140;9.234;2024-02-26T03:09:05;5.80;;;4.30;;
20445;SDS011;10382;49.140;9.234;2024-02-26T03:11:32;12.23;;;4.40;;
20445;SDS011;10382;49.140;9.234;2024-02-26T03:14:01;11.20;;;5.30;;
20445;SDS011;10382;49.140;9.234;2024-02-26T03:16:28;5.10;;;4.43;;
20445;SDS011;10382;49.140;9.234;2024-02-26T03:18:55;6.03;;;4.07;;
20445;SDS011;10382;49.140;9.234;2024-02-26T03:21:22;5.27;;;3.33;;
20445;SDS011;10382;49.140;9.234;2024-02-26T03:23:49;5.73;;;3.80;;
20445;SDS011;10382;49.140;9.234;2024-02-26T03:26:16;4.17;;;3.63;;
20445;SDS011;10382;49.140;9.234;2024-02-26T03:28:42;4.90;;;4.40;;
20445;SDS011;10382;49.140;9.234;2024-02-26T03:31:11;3.90;;;3.47;;
20445;SDS011;10382;49.140;9.234;2024-02-26T03:33:38;5.30;;;3.33;;
20445;SDS011;10382;49.140;9.234;2024-02-26T03:36:05;10.07;;;4.53;;
20445;SDS011;10382;49.140;9.234;2024-02-26T03:38:32;4.43;;;3.97;;
20445;SDS011;10382;49.140;9.234;2024-02-26T03:40:59;4.70;;;3.50;;
20445;SDS011;10382;49.140;9.234;2024-02-26T03:43:26;4.00;;;2.90;;
20445;SDS011;10382;49.140;9.234;2024-02-26T03:45:53;7.20;;;5.13;;
20445;SDS011;10382;49.140;9.234;2024-02-26T03:48:21;4.80;;;3.57;;
20445;SDS011;10382;49.140;9.234;2024-02-26T03:50:48;6.43;;;3.80;;
20445;SDS011;10382;49.140;9.234;2024-02-26T03:53:14;4.27;;;3.90;;
20445;SDS011;10382;49.140;9.234;2024-02-26T03:55:41;3.30;;;3.00;;
20445;SDS011;10382;49.140;9.234;2024-02-26T03:58:08;13.97;;;4.60;;
20445;SDS011;10382;49.140;9.234;2024-02-26T04:00:35;6.43;;;3.23;;
20445;SDS011;10382;49.140;9.234;2024-02-26T04:03:02;5.50;;;3.93;;
20445;SDS011;10382;49.140;9.234;2024-02-26T04:05:31;3.77;;;3.30;;
20445;SDS011;10382;49.140;9.234;2024-02-26T04:07:57;4.57;;;3.60;;
20445;SDS011;10382;49.140;9.234;2024-02-26T04:10:24;8.13;;;4.07;;
20445;SDS011;10382;49.140;9.234;2024-02-26T04:12:51;22.50;;;4.20;;
20445;SDS011;10382;49.140;9.234;2024-02-26T04:15:18;6.17;;;3.33;;
20445;SDS011;10382;49.140;9.234;2024-02-26T04:17:45;3.10;;;2.80;;
20445;SDS011;10382;49.140;9.234;2024-02-26T04:20:13;4.00;;;3.33;;
20445;SDS011;10382;49.140;9.234;2024-02-26T04:22:43;5.10;;;3.30;;
20445;SDS011;10382;49.140;9.234;2024-02-26T04:25:10;2.90;;;2.70;;
20445;SDS011;10382;49.140;9.234;2024-02-26T04:27:37;3.70;;;3.30;;
20445;SDS011;10382;49.140;9.234;2024-02-26T04:30:05;6.83;;;4.00;;
20445;SDS011;10382;49.140;9.234;2024-02-26T04:32:32;2.23;;;1.77;;
20445;SDS011;10382;49.140;9.234;2024-02-26T04:34:59;26.83;;;4.60;;
20445;SDS011;10382;49.140;9.234;2024-02-26T04:37:26;5.17;;;3.00;;
20445;SDS011;10382;49.140;9.234;2024-02-26T04:39:57;4.80;;;3.33;;
20445;SDS011;10382;49.140;9.234;2024-02-26T04:42:25;5.07;;;2.20;;
20445;SDS011;10382;49.140;9.234;2024-02-26T04:44:52;3.60;;;3.30;;
20445;SDS011;10382;49.140;9.234;2024-02-26T04:47:19;4.40;;;3.27;;
20445;SDS011;10382;49.140;9.234;2024-02-26T04:49:47;3.80;;;3.50;;
20445;SDS011;10382;49.140;9.234;2024-02-26T04:52:14;4.03;;;2.10;;
20445;SDS011;10382;49.140;9.234;2024-02-26T04:54:41;2.13;;;2.03;;
20445;SDS011;10382;49.140;9.234;2024-02-26T04:57:09;4.63;;;2.63;;
20445;SDS011;10382;49.140;9.234;2024-02-26T04:59:36;2.70;;;2.50;;
20445;SDS011;10382;49.140;9.234;2024-02-26T05:02:03;3.17;;;2.93;;
20445;SDS011;10382;49.140;9.234;2024-02-26T05:04:30;1.93;;;1.73;;
20445;SDS011;10382;49.140;9.234;2024-02-26T05:06:57;14.50;;;2.67;;
20445;SDS011;10382;49.140;9.234;2024-02-26T05:09:23;2.53;;;2.30;;
20445;SDS011;10382;49.140;9.234;2024-02-26T05:11:50;2.87;;;2.67;;
20445;SDS011;10382;49.140;9.234;2024-02-26T05:14:19;2.43;;;2.23;;
20445;SDS011;10382;49.140;9.234;2024-02-26T05:16:46;2.43;;;1.90;;
20445;SDS011;10382;49.140;9.234;2024-02-26T05:19:13;2.85;;;2.60;;
20445;SDS011;10382;49.140;9.234;2024-02-26T05:21:40;2.60;;;2.13;;
20445;SDS011;10382;49.140;9.234;2024-02-26T05:24:09;2.93;;;2.67;;
20445;SDS011;10382;49.140;9.234;2024-02-26T05:26:36;2.23;;;2.10;;
20445;SDS011;10382;49.140;9.234;2024-02-26T05:29:02;4.60;;;3.30;;
20445;SDS011;10382;49.140;9.234;2024-02-26T05:31:31;6.70;;;3.23;;
20445;SDS011;10382;49.140;9.234;2024-02-26T05:33:57;1.90;;;1.80;;
20445;SDS011;10382;49.140;9.234;2024-02-26T05:36:24;2.53;;;2.33;;
20445;SDS011;10382;49.140;9.234;2024-02-26T05:38:53;2.73;;;2.30;;
20445;SDS011;10382;49.140;9.234;2024-02-26T05:41:20;2.50;;;2.10;;
20445;SDS011;10382;49.140;9.234;2024-02-26T05:43:51;1.67;;;1.57;;
20445;SDS011;10382;49.140;9.234;2024-02-26T05:46:18;3.20;;;2.40;;
20445;SDS011;10382;49.140;9.234;2024-02-26T05:48:47;4.40;;;2.10;;
20445;SDS011;10382;49.140;9.234;2024-02-26T05:51:14;3.77;;;1.90;;
20445;SDS011;10382;49.140;9.234;2024-02-26T05:53:41;1.50;;;1.43;;
20445;SDS011;10382;49.140;9.234;2024-02-26T05:56:08;2.30;;;2.10;;
20445;SDS011;10382;49.140;9.234;2024-02-26T05:58:35;2.00;;;1.90;;
20445;SDS011;10382;49.140;9.234;2024-02-26T06:01:02;1.53;;;1.43;;
20445;SDS011;10382;49.140;9.234;2024-02-26T06:03:29;1.40;;;1.37;;
20445;SDS011;10382;49.140;9.234;2024-02-26T06:05:57;1.97;;;1.57;;
20445;SDS011;10382;49.140;9.234;2024-02-26T06:08:24;2.20;;;2.10;;
20445;SDS011;10382;49.140;9.234;2024-02-26T06:10:51;1.83;;;1.73;;
20445;SDS011;10382;49.140;9.234;2024-02-26T06:13:18;1.97;;;1.87;;
20445;SDS011;10382;49.140;9.234;2024-02-26T06:15:45;1.90;;;1.80;;
20445;SDS011;10382;49.140;9.234;2024-02-26T06:18:13;2.10;;;1.90;;
20445;SDS011;10382;49.140;9.234;2024-02-26T06:20:40;1.90;;;1.80;;
20445;SDS011;10382;49.140;9.234;2024-02-26T06:23:08;2.73;;;2.30;;
20445;SDS011;10382;49.140;9.234;2024-02-26T06:25:36;3.80;;;2.33;;
20445;SDS011;10382;49.140;9.234;2024-02-26T06:28:03;6.13;;;3.93;;
20445;SDS011;10382;49.140;9.234;2024-02-26T06:30:30;3.20;;;2.37;;
20445;SDS011;10382;49.140;9.234;2024-02-26T06:32:57;2.73;;;2.37;;
20445;SDS011;10382;49.140;9.234;2024-02-26T06:35:24;3.90;;;3.60;;
20445;SDS011;10382;49.140;9.234;2024-02-26T06:37:50;3.27;;;2.80;;
20445;SDS011;10382;49.140;9.234;2024-02-26T06:40:19;3.83;;;3.10;;
20445;SDS011;10382;49.140;9.234;2024-02-26T06:42:46;3.60;;;3.10;;
20445;SDS011;10382;49.140;9.234;2024-02-26T06:45:13;4.00;;;2.90;;
20445;SDS011;10382;49.140;9.234;2024-02-26T06:47:40;4.63;;;3.47;;
20445;SDS011;10382;49.140;9.234;2024-02-26T06:50:08;6.90;;;3.63;;
20445;SDS011;10382;49.140;9.234;2024-02-26T06:52:35;4.77;;;3.20;;
20445;SDS011;10382;49.140;9.234;2024-02-26T06:55:02;6.57;;;4.70;;
20445;SDS011;10382;49.140;9.234;2024-02-26T06:57:31;7.63;;;4.10;;
20445;SDS011;10382;49.140;9.234;2024-02-26T06:59:58;6.53;;;3.80;;
20445;SDS011;10382;49.140;9.234;2024-02-26T07:02:25;3.10;;;2.90;;
20445;SDS011;10382;49.140;9.234;2024-02-26T07:04:52;3.77;;;3.17;;
20445;SDS011;10382;49.140;9.234;2024-02-26T07:07:19;2.87;;;2.67;;
20445;SDS011;10382;49.140;9.234;2024-02-26T07:09:47;5.60;;;3.40;;
20445;SDS011;10382;49.140;9.234;2024-02-26T07:12:14;2.90;;;2.70;;
20445;SDS011;10382;49.140;9.234;2024-02-26T07:14:43;4.07;;;3.63;;
20445;SDS011;10382;49.140;9.234;2024-02-26T07:17:10;5.47;;;3.33;;
20445;SDS011;10382;49.140;9.234;2024-02-26T07:19:37;5.03;;;2.80;;
20445;SDS011;10382;49.140;9.234;2024-02-26T07:22:04;3.33;;;3.03;;
20445;SDS011;10382;49.140;9.234;2024-02-26T07:24:31;3.87;;;3.57;;
20445;SDS011;10382;49.140;9.234;2024-02-26T07:26:58;3.37;;;2.73;;
20445;SDS011;10382;49.140;9.234;2024-02-26T07:29:25;4.83;;;3.07;;
20445;SDS011;10382;49.140;9.234;2024-02-26T07:31:53;6.93;;;3.67;;
20445;SDS011;10382;49.140;9.234;2024-02-26T07:34:20;3.87;;;3.57;;
20445;SDS011;10382;49.140;9.234;2024-02-26T07:36:52;3.33;;;3.13;;
20445;SDS011;10382;49.140;9.234;2024-02-26T07:39:19;4.23;;;2.80;;
20445;SDS011;10382;49.140;9.234;2024-02-26T07:41:46;3.37;;;3.10;;
20445;SDS011;10382;49.140;9.234;2024-02-26T07:44:16;6.23;;;3.07;;
20445;SDS011;10382;49.140;9.234;2024-02-26T07:46:43;3.50;;;3.20;;
20445;SDS011;10382;49.140;9.234;2024-02-26T07:49:11;3.43;;;3.13;;
20445;SDS011;10382;49.140;9.234;2024-02-26T07:51:38;4.23;;;3.77;;
20445;SDS011;10382;49.140;9.234;2024-02-26T07:54:05;6.80;;;4.70;;
20445;SDS011;10382;49.140;9.234;2024-02-26T07:56:32;4.53;;;4.10;;
20445;SDS011;10382;49.140;9.234;2024-02-26T07:58:59;9.43;;;3.70;;
20445;SDS011;10382;49.140;9.234;2024-02-26T08:01:25;3.40;;;3.10;;
20445;SDS011;10382;49.140;9.234;2024-02-26T08:03:52;3.27;;;2.97;;
20445;SDS011;10382;49.140;9.234;2024-02-26T08:06:22;2.33;;;2.23;;
20445;SDS011;10382;49.140;9.234;2024-02-26T08:08:49;12.20;;;3.63;;
20445;SDS011;10382;49.140;9.234;2024-02-26T08:11:16;2.87;;;2.67;;
20445;SDS011;10382;49.140;9.234;2024-02-26T08:13:43;3.10;;;2.87;;
20445;SDS011;10382;49.140;9.234;2024-02-26T08:16:10;3.40;;;3.10;;
20445;SDS011;10382;49.140;9.234;2024-02-26T08:18:37;13.63;;;3.43;;
20445;SDS011;10382;49.140;9.234;2024-02-26T08:21:04;3.80;;;3.50;;
20445;SDS011;10382;49.140;9.234;2024-02-26T08:23:32;3.30;;;2.87;;
20445;SDS011;10382;49.140;9.234;2024-02-26T08:25:59;3.37;;;3.07;;
20445;SDS011;10382;49.140;9.234;2024-02-26T08:28:26;3.37;;;2.60;;
20445;SDS011;10382;49.140;9.234;2024-02-26T08:30:52;8.37;;;3.27;;
20445;SDS011;10382;49.140;9.234;2024-02-26T08:33:19;2.80;;;2.57;;
20445;SDS011;10382;49.140;9.234;2024-02-26T08:35:46;8.10;;;3.37;;
20445;SDS011;10382;49.140;9.234;2024-02-26T08:38:13;3.30;;;3.00;;
20445;SDS011;10382;49.140;9.234;2024-02-26T08:40:41;3.33;;;2.40;;
20445;SDS011;10382;49.140;9.234;2024-02-26T08:43:08;3.10;;;2.90;;
20445;SDS011;10382;49.140;9.234;2024-02-26T08:45:35;2.67;;;2.47;;
20445;SDS011;10382;49.140;9.234;2024-02-26T08:48:02;5.20;;;2.90;;
20445;SDS011;10382;49.140;9.234;2024-02-26T08:50:29;2.10;;;2.00;;
20445;SDS011;10382;49.140;9.234;2024-02-26T08:52:56;3.03;;;2.50;;
20445;SDS011;10382;49.140;9.234;2024-02-26T08:55:23;4.10;;;3.33;;
20445;SDS011;10382;49.140;9.234;2024-02-26T08:57:51;2.50;;;2.40;;
20445;SDS011;10382;49.140;9.234;2024-02-26T09:00:18;3.57;;;3.27;;
20445;SDS011;10382;49.140;9.234;2024-02-26T09:02:45;3.77;;;3.33;;
20445;SDS011;10382;49.140;9.234;2024-02-26T09:05:13;5.07;;;3.73;;
20445;SDS011;10382;49.140;9.234;2024-02-26T09:07:40;4.23;;;3.27;;
20445;SDS011;10382;49.140;9.234;2024-02-26T09:10:08;3.60;;;3.27;;
20445;SDS011;10382;49.140;9.234;2024-02-26T09:12:35;3.80;;;3.50;;
20445;SDS011;10382;49.140;9.234;2024-02-26T09:15:04;4.90;;;4.40;;
20445;SDS011;10382;49.140;9.234;2024-02-26T09:17:32;3.97;;;2.97;;
20445;SDS011;10382;49.140;9.234;2024-02-26T09:19:59;3.83;;;2.73;;
20445;SDS011;10382;49.140;9.234;2024-02-26T09:22:26;3.60;;;3.00;;
20445;SDS011;10382;49.140;9.234;2024-02-26T09:24:52;6.73;;;3.50;;
20445;SDS011;10382;49.140;9.234;2024-02-26T09:27:19;3.40;;;3.10;;
20445;SDS011;10382;49.140;9.234;2024-02-26T09:29:46;4.67;;;2.83;;
20445;SDS011;10382;49.140;9.234;2024-02-26T09:32:14;6.83;;;4.50;;
20445;SDS011;10382;49.140;9.234;2024-02-26T09:34:42;6.07;;;3.13;;
20445;SDS011;10382;49.140;9.234;2024-02-26T09:37:09;3.63;;;3.20;;
20445;SDS011;10382;49.140;9.234;2024-02-26T09:39:35;3.40;;;3.10;;
20445;SDS011;10382;49.140;9.234;2024-02-26T09:42:03;5.10;;;3.40;;
20445;SDS011;10382;49.140;9.234;2024-02-26T09:44:31;3.60;;;2.83;;
20445;SDS011;10382;49.140;9.234;2024-02-26T09:47:03;4.67;;;4.23;;
20445;SDS011;10382;49.140;9.234;2024-02-26T09:49:35;4.57;;;3.50;;
20445;SDS011;10382;49.140;9.234;2024-02-26T09:52:03;3.17;;;2.93;;
20445;SDS011;10382;49.140;9.234;2024-02-26T09:54:32;3.30;;;3.10;;
20445;SDS011;10382;49.140;9.234;2024-02-26T09:57:00;3.27;;;3.00;;
20445;SDS011;10382;49.140;9.234;2024-02-26T09:59:29;8.50;;;4.07;;
20445;SDS011;10382;49.140;9.234;2024-02-26T10:02:00;4.40;;;3.27;;
20445;SDS011;10382;49.140;9.234;2024-02-26T10:04:29;4.50;;;3.83;;
20445;SDS011;10382;49.140;9.234;2024-02-26T10:06:58;9.50;;;2.70;;
20445;SDS011;10382;49.140;9.234;2024-02-26T10:09:27;6.37;;;3.03;;
20445;SDS011;10382;49.140;9.234;2024-02-26T10:11:55;5.10;;;3.20;;
20445;SDS011;10382;49.140;9.234;2024-02-26T10:14:22;3.30;;;3.03;;
20445;SDS011;10382;49.140;9.234;2024-02-26T10:16:49;2.73;;;2.53;;
20445;SDS011;10382;49.140;9.234;2024-02-26T10:19:24;3.53;;;2.80;;
20445;SDS011;10382;49.140;9.234;2024-02-26T10:21:53;3.87;;;3.47;;
20445;SDS011;10382;49.140;9.234;2024-02-26T10:24:24;3.60;;;2.97;;
20445;SDS011;10382;49.140;9.234;2024-02-26T10:26:51;5.60;;;2.57;;
20445;SDS011;10382;49.140;9.234;2024-02-26T10:29:19;3.73;;;3.10;;
20445;SDS011;10382;49.140;9.234;2024-02-26T10:31:46;3.93;;;2.83;;
20445;SDS011;10382;49.140;9.234;2024-02-26T10:34:14;5.40;;;3.30;;
20445;SDS011;10382;49.140;9.234;2024-02-26T10:36:41;8.00;;;4.23;;
20445;SDS011;10382;49.140;9.234;2024-02-26T10:39:11;3.30;;;3.00;;
20445;SDS011;10382;49.140;9.234;2024-02-26T10:41:40;4.57;;;4.00;;
20445;SDS011;10382;49.140;9.234;2024-02-26T10:44:08;7.50;;;3.67;;
20445;SDS011;10382;49.140;9.234;2024-02-26T10:46:37;3.70;;;2.93;;
20445;SDS011;10382;49.140;9.234;2024-02-26T10:49:07;3.13;;;2.90;;
20445;SDS011;10382;49.140;9.234;2024-02-26T10:51:45;3.33;;;3.03;;
20445;SDS011;10382;49.140;9.234;2024-02-26T10:54:18;3.17;;;2.97;;
20445;SDS011;10382;49.140;9.234;2024-02-26T10:56:46;3.30;;;3.00;;
20445;SDS011;10382;49.140;9.234;2024-02-26T10:59:16;3.70;;;2.73;;
20445;SDS011;10382;49.140;9.234;2024-02-26T11:01:49;2.57;;;2.37;;
20445;SDS011;10382;49.140;9.234;2024-02-26T11:04:29;2.73;;;2.53;;
20445;SDS011;10382;49.140;9.234;2024-02-26T11:06:57;4.13;;;3.33;;
20445;SDS011;10382;49.140;9.234;2024-02-26T11:09:27;2.93;;;2.43;;
20445;SDS011;10382;49.140;9.234;2024-02-26T11:11:54;5.27;;;3.43;;
20445;SDS011;10382;49.140;9.234;2024-02-26T11:14:23;4.10;;;3.30;;
20445;SDS011;10382;49.140;9.234;2024-02-26T11:16:51;2.50;;;2.27;;
20445;SDS011;10382;49.140;9.234;2024-02-26T11:19:20;5.77;;;2.97;;
20445;SDS011;10382;49.140;9.234;2024-02-26T11:21:47;3.60;;;2.37;;
20445;SDS011;10382;49.140;9.234;2024-02-26T11:24:14;2.67;;;2.47;;
20445;SDS011;10382;49.140;9.234;2024-02-26T11:26:51;6.43;;;3.03;;
20445;SDS011;10382;49.140;9.234;2024-02-26T11:29:25;6.47;;;3.63;;
20445;SDS011;10382;49.140;9.234;2024-02-26T11:31:55;6.30;;;3.27;;
20445;SDS011;10382;49.140;9.234;2024-02-26T11:34:24;3.27;;;2.73;;
20445;SDS011;10382;49.140;9.234;2024-02-26T11:36:51;7.30;;;3.30;;
20445;SDS011;10382;49.140;9.234;2024-02-26T11:39:19;3.93;;;3.30;;
20445;SDS011;10382;49.140;9.234;2024-02-26T11:41:47;3.03;;;2.80;;
20445;SDS011;10382;49.140;9.234;2024-02-26T11:44:14;5.23;;;3.37;;
20445;SDS011;10382;49.140;9.234;2024-02-26T11:46:55;6.37;;;3.47;;
20445;SDS011;10382;49.140;9.234;2024-02-26T11:49:30;6.57;;;3.07;;
20445;SDS011;10382;49.140;9.234;2024-02-26T11:51:59;7.60;;;3.90;;
20445;SDS011;10382;49.140;9.234;2024-02-26T11:54:38;4.33;;;3.00;;
20445;SDS011;10382;49.140;9.234;2024-02-26T11:57:20;8.80;;;5.30;;
20445;SDS011;10382;49.140;9.234;2024-02-26T11:59:48;3.60;;;2.73;;
20445;SDS011;10382;49.140;9.234;2024-02-26T12:05:08;6.40;;;3.60;;
20445;SDS011;10382;49.140;9.234;2024-02-26T12:07:39;3.70;;;2.70;;
20445;SDS011;10382;49.140;9.234;2024-02-26T12:13:02;8.27;;;5.30;;
20445;SDS011;10382;49.140;9.234;2024-02-26T12:15:32;2.90;;;2.60;;
20445;SDS011;10382;49.140;9.234;2024-02-26T12:18:01;4.80;;;3.50;;
20445;SDS011;10382;49.140;9.234;2024-02-26T12:20:28;2.87;;;2.50;;
20445;SDS011;10382;49.140;9.234;2024-02-26T12:22:56;4.00;;;3.00;;
20445;SDS011;10382;49.140;9.234;2024-02-26T12:25:24;10.90;;;3.40;;
20445;SDS011;10382;49.140;9.234;2024-02-26T12:27:52;6.37;;;3.50;;
20445;SDS011;10382;49.140;9.234;2024-02-26T12:30:21;5.10;;;3.23;;
20445;SDS011;10382;49.140;9.234;2024-02-26T12:32:48;7.47;;;3.53;;
20445;SDS011;10382;49.140;9.234;2024-02-26T12:35:16;5.50;;;3.83;;
20445;SDS011;10382;49.140;9.234;2024-02-26T12:37:44;4.40;;;3.40;;
20445;SDS011;10382;49.140;9.234;2024-02-26T12:40:11;4.80;;;3.57;;
20445;SDS011;10382;49.140;9.234;2024-02-26T12:42:38;7.13;;;3.60;;
20445;SDS011;10382;49.140;9.234;2024-02-26T12:45:06;5.90;;;4.00;;
20445;SDS011;10382;49.140;9.234;2024-02-26T12:47:36;7.13;;;3.43;;
20445;SDS011;10382;49.140;9.234;2024-02-26T12:50:04;2.50;;;2.10;;
20445;SDS011;10382;49.140;9.234;2024-02-26T12:52:32;2.83;;;2.57;;
20445;SDS011;10382;49.140;9.234;2024-02-26T12:54:59;4.37;;;3.80;;
20445;SDS011;10382;49.140;9.234;2024-02-26T12:57:28;3.73;;;2.50;;
20445;SDS011;10382;49.140;9.234;2024-02-26T12:59:56;4.60;;;2.07;;
20445;SDS011;10382;49.140;9.234;2024-02-26T13:02:23;2.77;;;2.53;;
20445;SDS011;10382;49.140;9.234;2024-02-26T13:04:53;3.20;;;2.40;;
20445;SDS011;10382;49.140;9.234;2024-02-26T13:07:21;2.90;;;2.53;;
20445;SDS011;10382;49.140;9.234;2024-02-26T13:09:48;2.40;;;2.07;;
20445;SDS011;10382;49.140;9.234;2024-02-26T13:12:15;3.37;;;3.07;;
20445;SDS011;10382;49.140;9.234;2024-02-26T13:14:43;3.60;;;2.80;;
20445;SDS011;10382;49.140;9.234;2024-02-26T13:17:10;5.40;;;3.40;;
20445;SDS011;10382;49.140;9.234;2024-02-26T13:19:37;3.43;;;3.00;;
20445;SDS011;10382;49.140;9.234;2024-02-26T13:22:15;12.57;;;3.13;;
20445;SDS011;10382;49.140;9.234;2024-02-26T13:24:52;4.90;;;2.93;;
20445;SDS011;10382;49.140;9.234;2024-02-26T13:27:20;4.20;;;3.33;;
20445;SDS011;10382;49.140;9.234;2024-02-26T13:29:48;3.60;;;2.97;;
20445;SDS011;10382;49.140;9.234;2024-02-26T13:32:15;4.80;;;2.73;;
20445;SDS011;10382;49.140;9.234;2024-02-26T13:34:41;3.80;;;3.07;;
20445;SDS011;10382;49.140;9.234;2024-02-26T13:37:08;2.60;;;2.37;;
20445;SDS011;10382;49.140;9.234;2024-02-26T13:39:36;4.47;;;2.93;;
20445;SDS011;10382;49.140;9.234;2024-02-26T13:42:05;7.33;;;4.73;;
20445;SDS011;10382;49.140;9.234;2024-02-26T13:44:36;5.70;;;2.90;;
20445;SDS011;10382;49.140;9.234;2024-02-26T13:47:05;7.60;;;2.93;;
20445;SDS011;10382;49.140;9.234;2024-02-26T13:49:32;4.53;;;3.33;;
20445;SDS011;10382;49.140;9.234;2024-02-26T13:51:59;3.67;;;2.93;;
20445;SDS011;10382;49.140;9.234;2024-02-26T13:54:26;4.50;;;3.77;;
20445;SDS011;10382;49.140;9.234;2024-02-26T13:56:54;3.70;;;3.03;;
20445;SDS011;10382;49.140;9.234;2024-02-26T13:59:21;2.97;;;2.73;;
20445;SDS011;10382;49.140;9.234;2024-02-26T14:01:47;2.97;;;2.67;;
20445;SDS011;10382;49.140;9.234;2024-02-26T14:04:14;2.97;;;2.60;;
20445;SDS011;10382;49.140;9.234;2024-02-26T14:06:42;4.33;;;3.47;;
20445;SDS011;10382;49.140;9.234;2024-02-26T14:09:09;4.43;;;3.13;;
20445;SDS011;10382;49.140;9.234;2024-02-26T14:11:35;3.50;;;3.20;;
20445;SDS011;10382;49.140;9.234;2024-02-26T14:14:06;7.10;;;3.40;;
20445;SDS011;10382;49.140;9.234;2024-02-26T14:16:32;8.57;;;3.83;;
20445;SDS011;10382;49.140;9.234;2024-02-26T14:18:59;7.23;;;3.63;;
20445;SDS011;10382;49.140;9.234;2024-02-26T14:21:27;5.87;;;3.83;;
20445;SDS011;10382;49.140;9.234;2024-02-26T14:23:54;4.30;;;3.40;;
20445;SDS011;10382;49.140;9.234;2024-02-26T14:26:21;4.23;;;3.10;;
20445;SDS011;10382;49.140;9.234;2024-02-26T14:28:48;3.00;;;2.57;;
20445;SDS011;10382;49.140;9.234;2024-02-26T14:31:18;2.73;;;2.53;;
20445;SDS011;10382;49.140;9.234;2024-02-26T14:33:45;6.77;;;4.00;;
20445;SDS011;10382;49.140;9.234;2024-02-26T14:36:13;5.30;;;3.33;;
20445;SDS011;10382;49.140;9.234;2024-02-26T14:38:40;4.40;;;3.73;;
20445;SDS011;10382;49.140;9.234;2024-02-26T14:41:07;7.07;;;3.53;;
20445;SDS011;10382;49.140;9.234;2024-02-26T14:43:35;2.57;;;2.37;;
20445;SDS011;10382;49.140;9.234;2024-02-26T14:46:02;4.43;;;3.47;;
20445;SDS011;10382;49.140;9.234;2024-02-26T14:48:30;7.03;;;4.23;;
20445;SDS011;10382;49.140;9.234;2024-02-26T14:50:57;6.33;;;4.60;;
20445;SDS011;10382;49.140;9.234;2024-02-26T14:53:25;3.30;;;2.77;;
20445;SDS011;10382;49.140;9.234;2024-02-26T14:55:52;4.73;;;3.47;;
20445;SDS011;10382;49.140;9.234;2024-02-26T14:58:19;3.03;;;2.80;;